createdAt,value
2022-11-29T00:01:01.374Z,21.08
2022-11-29T00:04:03.180Z,20.73
2022-11-29T00:07:04.624Z,23.10
2022-11-29T00:10:06.787Z,21.27
2022-11-29T00:13:08.251Z,21.92
2022-11-29T00:16:11.342Z,23.92
2022-11-29T00:19:13.604Z,21.98
2022-11-29T00:22:15.045Z,21.40
2022-11-29T00:25:16.629Z,21.50
2022-11-29T00:28:18.200Z,21.52
2022-11-29T00:31:37.574Z,21.92
2022-11-29T00:34:39.028Z,21.90
2022-11-29T00:37:40.431Z,22.67
2022-11-29T00:40:41.941Z,22.45
2022-11-29T00:43:44.107Z,20.02
2022-11-29T00:46:45.604Z,22.15
2022-11-29T00:49:47.072Z,21.35
2022-11-29T00:52:48.731Z,22.90
2022-11-29T00:55:53.812Z,20.98
2022-11-29T00:58:55.369Z,23.75
2022-11-29T01:01:57.044Z,21.83
2022-11-29T01:04:58.580Z,20.73
2022-11-29T01:08:00.263Z,25.02
2022-11-29T01:11:07.394Z,24.80
2022-11-29T01:14:10.428Z,21.63
2022-11-29T01:17:11.895Z,21.38
2022-11-29T01:20:13.760Z,22.65
2022-11-29T01:23:15.193Z,18.58
2022-11-29T01:26:23.617Z,20.38
2022-11-29T01:29:25.109Z,21.08
2022-11-29T01:32:26.817Z,20.27
2022-11-29T01:35:28.289Z,25.50
2022-11-29T01:38:29.755Z,22.88
2022-11-29T01:41:33.422Z,20.45
2022-11-29T01:44:34.848Z,20.60
2022-11-29T01:47:41.300Z,20.10
2022-11-29T01:50:43.045Z,19.45
2022-11-29T01:53:44.598Z,19.40
2022-11-29T01:56:48.819Z,19.77
2022-11-29T02:03:20.247Z,19.23
2022-11-29T02:06:22.539Z,19.33
2022-11-29T02:09:24.018Z,17.73
2022-11-29T02:12:43.709Z,18.58
2022-11-29T02:16:07.166Z,20.98
2022-11-29T02:19:45.181Z,19.35
2022-11-29T02:23:23.219Z,21.58
2022-11-29T02:26:54.977Z,18.80
2022-11-29T02:30:34.989Z,19.23
2022-11-29T02:34:02.888Z,18.67
2022-11-29T02:37:23.186Z,21.35
2022-11-29T02:40:55.156Z,19.83
2022-11-29T02:44:21.504Z,20.98
2022-11-29T02:47:48.747Z,23.05
2022-11-29T02:51:06.742Z,24.38
2022-11-29T02:54:14.178Z,20.02
2022-11-29T02:57:25.658Z,24.67
2022-11-29T03:00:28.196Z,19.08
2022-11-29T03:03:38.843Z,20.85
2022-11-29T03:07:05.775Z,21.60
2022-11-29T03:10:28.876Z,26.80
2022-11-29T03:13:51.390Z,24.92
2022-11-29T03:17:02.858Z,24.15
2022-11-29T03:20:37.448Z,24.73
2022-11-29T03:23:45.624Z,25.27
2022-11-29T03:26:57.514Z,26.30
2022-11-29T03:30:01.614Z,23.10
2022-11-29T03:33:16.936Z,21.88
2022-11-29T03:36:45.865Z,21.70
2022-11-29T03:40:01.744Z,23.42
2022-11-29T03:43:11.136Z,22.88
2022-11-29T03:46:18.614Z,24.40
2022-11-29T03:50:09.596Z,22.52
2022-11-29T03:53:23.635Z,20.17
2022-11-29T03:56:34.754Z,23.98
2022-11-29T03:59:59.195Z,23.63
2022-11-29T04:03:12.787Z,20.48
2022-11-29T04:06:30.399Z,23.23
2022-11-29T04:09:51.052Z,20.52
2022-11-29T04:13:35.996Z,21.50
2022-11-29T04:17:18.714Z,19.30
2022-11-29T04:20:44.201Z,20.92
2022-11-29T04:24:27.155Z,18.67
2022-11-29T04:27:34.663Z,22.30
2022-11-29T04:30:55.956Z,20.92
2022-11-29T04:34:12.425Z,19.60
2022-11-29T04:37:19.893Z,21.25
2022-11-29T04:40:40.327Z,18.27
2022-11-29T04:44:02.167Z,21.90
2022-11-29T04:47:25.724Z,19.67
2022-11-29T04:50:36.063Z,18.85
2022-11-29T04:53:37.464Z,21.88
2022-11-29T04:56:54.075Z,23.98
2022-11-29T05:00:19.322Z,21.52
2022-11-29T05:03:52.546Z,18.77
2022-11-29T05:07:07.504Z,20.40
2022-11-29T05:10:37.115Z,16.77
2022-11-29T05:13:56.882Z,20.65
2022-11-29T05:17:10.373Z,17.52
2022-11-29T05:20:38.488Z,18.85
2022-11-29T05:23:55.106Z,20.98
2022-11-29T05:27:18.281Z,20.70
2022-11-29T05:30:25.297Z,22.45
2022-11-29T05:33:45.059Z,21.35
2022-11-29T05:37:01.190Z,21.48
2022-11-29T05:40:21.536Z,20.80
2022-11-29T05:43:41.045Z,18.88
2022-11-29T05:46:55.158Z,20.52
2022-11-29T05:50:20.981Z,20.42
2022-11-29T05:53:44.055Z,17.88
2022-11-29T05:57:06.824Z,21.73
2022-11-29T06:00:11.486Z,19.17
2022-11-29T06:03:24.611Z,19.98
2022-11-29T06:06:30.219Z,20.60
2022-11-29T06:09:45.588Z,20.20
2022-11-29T06:13:23.219Z,19.88
2022-11-29T06:17:02.162Z,24.42
2022-11-29T06:20:26.369Z,24.17
2022-11-29T06:23:43.051Z,22.88
2022-11-29T06:27:14.094Z,21.33
2022-11-29T06:30:22.381Z,21.42
2022-11-29T06:33:31.266Z,23.50
2022-11-29T06:36:54.068Z,22.92
2022-11-29T06:39:55.789Z,20.00
2022-11-29T06:42:57.211Z,21.88
2022-11-29T06:46:05.839Z,23.73
2022-11-29T06:49:29.349Z,28.25
2022-11-29T06:52:50.999Z,21.08
2022-11-29T06:55:55.511Z,20.10
2022-11-29T06:59:14.296Z,18.92
2022-11-29T07:02:38.070Z,18.38
2022-11-29T07:05:40.137Z,21.73
2022-11-29T07:08:42.771Z,19.80
2022-11-29T07:11:45.826Z,18.23
2022-11-29T07:14:47.914Z,18.52
2022-11-29T07:18:14.414Z,18.30
2022-11-29T07:21:31.663Z,15.48
2022-11-29T07:24:47.096Z,15.90
2022-11-29T07:27:54.210Z,18.23
2022-11-29T07:31:05.105Z,16.67
2022-11-29T07:34:21.632Z,14.52
2022-11-29T07:37:50.090Z,12.73
2022-11-29T07:41:18.044Z,16.10
2022-11-29T07:44:35.168Z,15.50
2022-11-29T07:47:36.632Z,16.20
2022-11-29T07:50:39.155Z,16.55
2022-11-29T07:53:43.096Z,15.85
2022-11-29T07:56:44.550Z,21.52
2022-11-29T07:59:46.135Z,19.83
2022-11-29T08:02:49.084Z,20.38
2022-11-29T08:05:50.491Z,22.08
2022-11-29T08:08:51.952Z,20.17
2022-11-29T08:11:53.419Z,20.58
2022-11-29T08:14:54.932Z,18.98
2022-11-29T08:17:56.442Z,18.92
2022-11-29T08:20:57.952Z,18.45
2022-11-29T08:23:59.372Z,19.52
2022-11-29T08:27:00.865Z,17.25
2022-11-29T08:30:02.891Z,15.75
2022-11-29T08:33:04.402Z,17.30
2022-11-29T08:36:09.892Z,17.48
2022-11-29T08:39:11.455Z,17.77
2022-11-29T08:42:12.911Z,15.82
2022-11-29T08:45:14.319Z,19.17
2022-11-29T08:48:15.782Z,17.05
2022-11-29T08:51:17.242Z,15.23
2022-11-29T08:54:18.731Z,15.32
2022-11-29T09:00:44.122Z,14.20
2022-11-29T09:03:46.822Z,14.50
2022-11-29T09:06:48.224Z,15.23
2022-11-29T09:09:49.647Z,15.88
2022-11-29T09:12:51.083Z,15.95
2022-11-29T09:15:52.599Z,14.52
2022-11-29T09:18:54.491Z,17.20
2022-11-29T09:21:55.962Z,16.85
2022-11-29T09:24:57.407Z,16.58
2022-11-29T09:27:59.412Z,15.93
2022-11-29T09:31:05.739Z,15.93
2022-11-29T09:34:07.296Z,15.98
2022-11-29T09:37:08.765Z,17.40
2022-11-29T09:40:23.295Z,17.60
2022-11-29T09:46:58.736Z,15.05
2022-11-29T09:50:19.178Z,16.38
2022-11-29T09:53:35.811Z,16.42
2022-11-29T09:56:45.804Z,15.38
2022-11-29T09:59:52.425Z,14.88
2022-11-29T10:03:00.974Z,15.90
2022-11-29T10:06:11.590Z,14.68
2022-11-29T10:09:30.853Z,13.68
2022-11-29T10:12:40.946Z,13.98
2022-11-29T10:15:45.586Z,13.95
2022-11-29T10:18:58.613Z,15.68
2022-11-29T10:22:27.775Z,13.80
2022-11-29T10:25:37.459Z,17.02
2022-11-29T10:28:42.655Z,14.45
2022-11-29T10:31:46.324Z,17.58
2022-11-29T10:34:49.468Z,14.50
2022-11-29T10:38:22.669Z,13.02
2022-11-29T10:41:21.935Z,13.30
2022-11-29T10:44:24.361Z,13.15
2022-11-29T10:47:26.116Z,11.82
2022-11-29T10:50:30.935Z,16.00
2022-11-29T10:53:37.192Z,13.07
2022-11-29T10:56:39.242Z,13.77
2022-11-29T10:59:41.137Z,12.60
2022-11-29T11:02:42.655Z,11.15
2022-11-29T11:05:59.336Z,11.18
2022-11-29T11:09:30.125Z,12.38
2022-11-29T11:12:35.323Z,10.93
2022-11-29T11:15:37.189Z,10.75
2022-11-29T11:18:38.697Z,11.13
2022-11-29T11:21:40.188Z,11.10
2022-11-29T11:24:44.084Z,11.95
2022-11-29T11:27:46.282Z,12.70
2022-11-29T11:31:03.075Z,14.43
2022-11-29T11:34:24.712Z,12.13
2022-11-29T11:37:33.384Z,11.68
2022-11-29T11:40:34.888Z,11.98
2022-11-29T11:43:37.990Z,12.20
2022-11-29T11:46:48.228Z,13.38
2022-11-29T11:49:55.897Z,13.55
2022-11-29T11:53:05.000Z,13.48
2022-11-29T11:56:10.254Z,12.55
2022-11-29T11:59:23.807Z,14.52
2022-11-29T12:02:40.420Z,15.93
2022-11-29T12:05:44.922Z,14.43
2022-11-29T12:08:49.205Z,12.95
2022-11-29T12:12:02.783Z,13.40
2022-11-29T12:15:08.483Z,12.90
2022-11-29T12:18:14.484Z,12.68
2022-11-29T12:21:21.319Z,14.40
2022-11-29T12:24:38.938Z,14.88
2022-11-29T12:27:40.412Z,14.50
2022-11-29T12:30:50.417Z,14.43
2022-11-29T12:34:22.169Z,15.13
2022-11-29T12:37:48.353Z,12.82
2022-11-29T12:41:19.783Z,13.18
2022-11-29T12:44:46.035Z,13.68
2022-11-29T12:48:10.684Z,13.18
2022-11-29T12:52:09.399Z,14.98
2022-11-29T12:55:33.941Z,13.88
2022-11-29T12:59:11.125Z,13.90
2022-11-29T13:02:21.621Z,16.05
2022-11-29T13:06:11.951Z,14.43
2022-11-29T13:09:46.924Z,14.35
2022-11-29T13:12:53.744Z,15.05
2022-11-29T13:16:07.922Z,15.43
2022-11-29T13:19:18.343Z,15.23
2022-11-29T13:22:39.086Z,16.08
2022-11-29T13:25:43.960Z,17.63
2022-11-29T13:28:45.846Z,15.55
2022-11-29T13:31:47.979Z,15.77
2022-11-29T13:34:51.794Z,15.73
2022-11-29T13:38:00.988Z,16.48
2022-11-29T13:41:16.430Z,16.75
2022-11-29T13:44:45.792Z,15.50
2022-11-29T13:47:52.265Z,16.50
2022-11-29T13:50:54.789Z,15.10
2022-11-29T13:53:59.461Z,17.60
2022-11-29T13:57:07.586Z,18.88
2022-11-29T14:00:27.864Z,16.33
2022-11-29T14:03:33.355Z,18.33
2022-11-29T14:06:37.156Z,16.50
2022-11-29T14:09:48.338Z,17.40
2022-11-29T14:12:55.850Z,18.83
2022-11-29T14:16:01.672Z,17.73
2022-11-29T14:19:09.486Z,20.33
2022-11-29T14:22:19.242Z,17.85
2022-11-29T14:25:50.584Z,17.58
2022-11-29T14:28:47.148Z,17.50
2022-11-29T14:31:51.280Z,17.35
2022-11-29T14:35:19.979Z,18.25
2022-11-29T14:38:31.278Z,19.20
2022-11-29T14:41:51.155Z,19.85
2022-11-29T14:44:55.348Z,20.77
2022-11-29T14:51:32.291Z,20.40
2022-11-29T14:57:47.540Z,22.40
2022-11-29T15:00:48.947Z,18.77
2022-11-29T15:03:50.671Z,20.30
2022-11-29T15:06:55.820Z,21.10
2022-11-29T15:10:04.002Z,20.45
2022-11-29T15:13:09.992Z,20.85
2022-11-29T15:16:56.333Z,22.40
2022-11-29T15:20:15.069Z,21.33
2022-11-29T15:23:18.483Z,22.80
2022-11-29T15:26:20.924Z,21.52
2022-11-29T15:29:22.856Z,21.00
2022-11-29T15:32:27.763Z,20.45
2022-11-29T15:35:29.981Z,19.40
2022-11-29T15:38:44.931Z,18.98
2022-11-29T15:41:46.356Z,25.27
2022-11-29T15:44:48.444Z,21.90
2022-11-29T15:47:50.235Z,20.92
2022-11-29T15:51:07.075Z,25.40
2022-11-29T15:54:13.602Z,22.30
2022-11-29T15:57:25.152Z,18.63
2022-11-29T16:00:27.044Z,24.80
2022-11-29T16:03:32.538Z,22.58
2022-11-29T16:06:41.064Z,21.23
2022-11-29T16:09:47.139Z,20.30
2022-11-29T16:12:50.781Z,22.23
2022-11-29T16:16:09.029Z,25.05
2022-11-29T16:19:21.408Z,24.30
2022-11-29T16:22:23.773Z,21.33
2022-11-29T16:25:25.367Z,24.08
2022-11-29T16:28:32.716Z,51.30
2022-11-29T16:31:38.224Z,28.58
2022-11-29T16:34:43.305Z,26.05
2022-11-29T16:37:46.340Z,25.58
2022-11-29T16:41:04.928Z,27.70
2022-11-29T16:44:41.713Z,27.88
2022-11-29T16:47:51.866Z,23.77
2022-11-29T16:51:12.496Z,27.25
2022-11-29T16:54:22.774Z,27.00
2022-11-29T17:04:23.934Z,24.13
2022-11-29T17:07:29.862Z,24.48
2022-11-29T17:10:31.330Z,28.50
2022-11-29T17:13:33.757Z,26.40
2022-11-29T17:16:35.251Z,33.30
2022-11-29T17:19:36.810Z,35.65
2022-11-29T17:22:38.341Z,35.22
2022-11-29T17:25:39.770Z,35.00
2022-11-29T17:28:42.448Z,30.17
2022-11-29T17:31:46.000Z,34.17
2022-11-29T17:34:48.271Z,33.03
2022-11-29T17:37:49.845Z,34.60
2022-11-29T17:40:51.352Z,37.85
2022-11-29T17:43:55.326Z,39.08
2022-11-29T17:46:56.763Z,41.65
2022-11-29T17:49:58.284Z,38.25
2022-11-29T17:52:59.706Z,35.33
2022-11-29T17:56:03.508Z,34.67
2022-11-29T17:59:05.355Z,49.53
2022-11-29T18:02:06.959Z,68.90
2022-11-29T18:05:08.789Z,91.45
2022-11-29T18:08:10.260Z,77.25
2022-11-29T18:11:12.868Z,70.55
2022-11-29T18:14:16.497Z,57.65
2022-11-29T18:17:17.938Z,61.70
2022-11-29T18:20:19.377Z,61.80
2022-11-29T18:23:20.825Z,51.70
2022-11-29T18:26:24.667Z,45.05
2022-11-29T18:29:26.169Z,39.45
2022-11-29T18:37:27.554Z,37.13
2022-11-29T18:40:42.246Z,34.97
2022-11-29T18:43:44.291Z,29.45
2022-11-29T18:46:46.464Z,29.70
2022-11-29T18:49:47.902Z,37.28
2022-11-29T18:52:49.402Z,33.05
2022-11-29T18:55:59.971Z,38.83
2022-11-29T18:59:13.251Z,32.35
2022-11-29T19:02:14.703Z,29.20
2022-11-29T19:05:16.138Z,30.10
2022-11-29T19:08:17.619Z,30.63
2022-11-29T19:11:24.107Z,31.02
2022-11-29T19:14:25.589Z,37.67
2022-11-29T19:17:27.040Z,39.60
2022-11-29T19:20:28.519Z,36.70
2022-11-29T19:23:30.029Z,33.67
2022-11-29T19:26:32.651Z,32.22
2022-11-29T19:29:39.473Z,29.63
2022-11-29T19:32:41.387Z,31.55
2022-11-29T19:35:42.845Z,29.80
2022-11-29T19:38:48.854Z,37.65
2022-11-29T19:41:54.510Z,50.72
2022-11-29T19:45:15.829Z,59.50
2022-11-29T19:48:17.483Z,34.15
2022-11-29T19:51:19.985Z,42.53
2022-11-29T19:54:21.431Z,46.30
2022-11-29T19:57:22.948Z,96.22
2022-11-29T20:00:24.438Z,91.45
2022-11-29T20:03:25.906Z,81.22
2022-11-29T20:06:28.997Z,83.35
2022-11-29T20:09:30.469Z,80.72
2022-11-29T20:12:31.954Z,68.75
2022-11-29T20:15:33.391Z,52.53
2022-11-29T20:18:37.222Z,41.85
2022-11-29T20:21:44.721Z,38.55
2022-11-29T20:24:46.241Z,41.25
2022-11-29T20:27:47.643Z,40.13
2022-11-29T20:30:49.283Z,36.90
2022-11-29T20:33:53.055Z,34.38
2022-11-29T20:37:03.192Z,33.60
2022-11-29T20:40:19.222Z,34.50
2022-11-29T20:43:29.196Z,37.28
2022-11-29T20:46:31.116Z,34.75
2022-11-29T20:49:32.792Z,36.33
2022-11-29T20:53:01.696Z,36.65
2022-11-29T20:56:05.186Z,36.90
2022-11-29T20:59:06.639Z,34.55
2022-11-29T21:02:08.071Z,33.78
2022-11-29T21:05:10.044Z,31.77
2022-11-29T21:08:12.483Z,35.63
2022-11-29T21:11:14.376Z,36.15
2022-11-29T21:14:16.147Z,38.80
2022-11-29T21:17:17.988Z,35.13
2022-11-29T21:20:25.366Z,37.08
2022-11-29T21:24:00.523Z,38.13
2022-11-29T21:27:03.178Z,40.38
2022-11-29T21:30:13.430Z,37.45
2022-11-29T21:33:15.077Z,36.75
2022-11-29T21:36:16.763Z,39.60
2022-11-29T21:39:18.267Z,47.53
2022-11-29T21:42:21.752Z,45.03
2022-11-29T21:45:23.259Z,33.78
2022-11-29T21:48:24.720Z,37.13
2022-11-29T21:51:26.170Z,32.08
2022-11-29T21:54:28.759Z,34.35
2022-11-29T21:57:30.227Z,42.13
2022-11-29T22:00:37.178Z,34.08
2022-11-29T22:03:40.090Z,34.38
2022-11-29T22:06:41.529Z,36.35
2022-11-29T22:09:43.073Z,33.75
2022-11-29T22:12:51.890Z,46.70
2022-11-29T22:15:54.259Z,114.22
2022-11-29T22:18:55.822Z,81.78
2022-11-29T22:22:01.167Z,71.03
2022-11-29T22:28:04.061Z,41.50
2022-11-29T22:31:10.984Z,35.08
2022-11-29T22:34:13.359Z,36.40
2022-11-29T22:37:14.867Z,35.78
2022-11-29T22:40:16.304Z,34.53
2022-11-29T22:43:17.722Z,32.60
2022-11-29T22:46:22.443Z,28.42
2022-11-29T22:49:23.954Z,27.33
2022-11-29T22:52:27.231Z,26.58
2022-11-29T22:55:28.692Z,25.90
2022-11-29T22:58:30.566Z,27.75
2022-11-29T23:01:34.095Z,25.75
2022-11-29T23:04:35.520Z,27.65
2022-11-29T23:07:36.942Z,25.25
2022-11-29T23:10:38.416Z,25.00
2022-11-29T23:13:41.967Z,24.52
2022-11-29T23:16:44.738Z,25.02
2022-11-29T23:19:46.269Z,23.48
2022-11-29T23:22:47.695Z,22.63
2022-11-29T23:25:50.038Z,23.77
2022-11-29T23:28:51.481Z,27.83
2022-11-29T23:31:52.932Z,31.02
2022-11-29T23:34:54.394Z,28.50
2022-11-29T23:37:55.837Z,27.25
2022-11-29T23:40:57.237Z,27.52
2022-11-29T23:43:58.687Z,25.90
2022-11-29T23:47:00.146Z,24.90
2022-11-29T23:50:01.609Z,27.75
2022-11-29T23:53:03.046Z,26.98
2022-11-29T23:56:11.665Z,26.55
2022-11-29T23:59:13.137Z,23.42
